sensor_id;sensor_type;location;lat;lon;timestamp;P1;durP1;ratioP1;P2;durP2;ratioP2
49235;SDS011;35067;48.134;8.378;2022-10-18T00:01:23;3.67;;;2.40;;
49235;SDS011;35067;48.134;8.378;2022-10-18T00:03:24;3.73;;;2.37;;
49235;SDS011;35067;48.134;8.378;2022-10-18T00:05:25;3.63;;;2.23;;
49235;SDS011;35067;48.134;8.378;2022-10-18T00:07:25;4.40;;;2.80;;
49235;SDS011;35067;48.134;8.378;2022-10-18T00:09:26;2.37;;;2.10;;
49235;SDS011;35067;48.134;8.378;2022-10-18T00:11:26;3.57;;;2.17;;
49235;SDS011;35067;48.134;8.378;2022-10-18T00:13:27;6.13;;;2.60;;
49235;SDS011;35067;48.134;8.378;2022-10-18T00:15:27;4.73;;;2.30;;
49235;SDS011;35067;48.134;8.378;2022-10-18T00:17:28;3.40;;;2.67;;
49235;SDS011;35067;48.134;8.378;2022-10-18T00:19:29;4.17;;;2.43;;
49235;SDS011;35067;48.134;8.378;2022-10-18T00:21:29;5.00;;;2.40;;
49235;SDS011;35067;48.134;8.378;2022-10-18T00:23:30;3.00;;;2.17;;
49235;SDS011;35067;48.134;8.378;2022-10-18T00:25:31;5.83;;;2.43;;
49235;SDS011;35067;48.134;8.378;2022-10-18T00:27:32;3.63;;;2.27;;
49235;SDS011;35067;48.134;8.378;2022-10-18T00:29:33;4.07;;;2.30;;
49235;SDS011;35067;48.134;8.378;2022-10-18T00:31:35;3.47;;;2.50;;
49235;SDS011;35067;48.134;8.378;2022-10-18T00:33:36;5.30;;;3.27;;
49235;SDS011;35067;48.134;8.378;2022-10-18T00:35:37;2.60;;;1.97;;
49235;SDS011;35067;48.134;8.378;2022-10-18T00:37:38;3.93;;;2.60;;
49235;SDS011;35067;48.134;8.378;2022-10-18T00:39:38;4.67;;;2.07;;
49235;SDS011;35067;48.134;8.378;2022-10-18T00:41:39;2.80;;;1.90;;
49235;SDS011;35067;48.134;8.378;2022-10-18T00:46:00;3.77;;;2.37;;
49235;SDS011;35067;48.134;8.378;2022-10-18T00:48:01;4.87;;;2.13;;
49235;SDS011;35067;48.134;8.378;2022-10-18T00:50:04;6.50;;;2.20;;
49235;SDS011;35067;48.134;8.378;2022-10-18T00:52:14;4.10;;;2.43;;
49235;SDS011;35067;48.134;8.378;2022-10-18T00:54:18;3.40;;;2.10;;
49235;SDS011;35067;48.134;8.378;2022-10-18T00:56:19;3.37;;;2.37;;
49235;SDS011;35067;48.134;8.378;2022-10-18T00:58:20;4.87;;;2.40;;
49235;SDS011;35067;48.134;8.378;2022-10-18T01:00:20;8.10;;;2.73;;
49235;SDS011;35067;48.134;8.378;2022-10-18T01:02:21;4.93;;;2.50;;
49235;SDS011;35067;48.134;8.378;2022-10-18T01:04:22;2.97;;;2.40;;
49235;SDS011;35067;48.134;8.378;2022-10-18T01:06:23;5.83;;;2.20;;
49235;SDS011;35067;48.134;8.378;2022-10-18T01:08:31;2.57;;;2.20;;
49235;SDS011;35067;48.134;8.378;2022-10-18T01:10:47;4.80;;;1.93;;
49235;SDS011;35067;48.134;8.378;2022-10-18T01:15:57;3.83;;;2.20;;
49235;SDS011;35067;48.134;8.378;2022-10-18T01:22:46;2.80;;;1.67;;
49235;SDS011;35067;48.134;8.378;2022-10-18T01:25:15;4.20;;;2.13;;
49235;SDS011;35067;48.134;8.378;2022-10-18T01:27:31;3.40;;;1.97;;
49235;SDS011;35067;48.134;8.378;2022-10-18T01:30:00;7.00;;;2.23;;
49235;SDS011;35067;48.134;8.378;2022-10-18T01:32:22;2.40;;;2.10;;
49235;SDS011;35067;48.134;8.378;2022-10-18T01:34:31;6.07;;;2.37;;
49235;SDS011;35067;48.134;8.378;2022-10-18T01:36:36;3.30;;;2.00;;
49235;SDS011;35067;48.134;8.378;2022-10-18T01:38:46;3.87;;;2.20;;
49235;SDS011;35067;48.134;8.378;2022-10-18T01:40:50;5.87;;;1.87;;
49235;SDS011;35067;48.134;8.378;2022-10-18T01:42:52;2.43;;;2.07;;
49235;SDS011;35067;48.134;8.378;2022-10-18T01:44:53;3.77;;;2.10;;
49235;SDS011;35067;48.134;8.378;2022-10-18T01:46:55;4.60;;;2.30;;
49235;SDS011;35067;48.134;8.378;2022-10-18T01:48:56;3.57;;;2.10;;
49235;SDS011;35067;48.134;8.378;2022-10-18T01:50:58;2.30;;;1.97;;
49235;SDS011;35067;48.134;8.378;2022-10-18T01:52:59;4.27;;;2.10;;
49235;SDS011;35067;48.134;8.378;2022-10-18T01:54:59;4.33;;;2.30;;
49235;SDS011;35067;48.134;8.378;2022-10-18T01:57:14;3.57;;;1.90;;
49235;SDS011;35067;48.134;8.378;2022-10-18T01:59:36;2.97;;;2.17;;
49235;SDS011;35067;48.134;8.378;2022-10-18T02:02:14;3.57;;;1.93;;
49235;SDS011;35067;48.134;8.378;2022-10-18T02:07:05;4.57;;;2.40;;
49235;SDS011;35067;48.134;8.378;2022-10-18T02:09:29;4.07;;;1.90;;
49235;SDS011;35067;48.134;8.378;2022-10-18T02:11:38;5.77;;;2.20;;
49235;SDS011;35067;48.134;8.378;2022-10-18T02:13:43;5.50;;;2.10;;
49235;SDS011;35067;48.134;8.378;2022-10-18T02:15:46;6.90;;;2.40;;
49235;SDS011;35067;48.134;8.378;2022-10-18T02:17:50;2.87;;;2.20;;
49235;SDS011;35067;48.134;8.378;2022-10-18T02:19:53;5.00;;;2.83;;
49235;SDS011;35067;48.134;8.378;2022-10-18T02:21:55;3.73;;;2.17;;
49235;SDS011;35067;48.134;8.378;2022-10-18T02:23:57;3.13;;;2.43;;
49235;SDS011;35067;48.134;8.378;2022-10-18T02:25:58;3.87;;;2.53;;
49235;SDS011;35067;48.134;8.378;2022-10-18T02:28:00;3.77;;;2.20;;
49235;SDS011;35067;48.134;8.378;2022-10-18T02:30:02;4.13;;;2.30;;
49235;SDS011;35067;48.134;8.378;2022-10-18T02:32:11;4.60;;;2.37;;
49235;SDS011;35067;48.134;8.378;2022-10-18T02:34:22;2.37;;;2.17;;
49235;SDS011;35067;48.134;8.378;2022-10-18T02:36:29;3.40;;;2.40;;
49235;SDS011;35067;48.134;8.378;2022-10-18T02:38:33;5.07;;;2.27;;
49235;SDS011;35067;48.134;8.378;2022-10-18T02:40:34;4.40;;;2.33;;
49235;SDS011;35067;48.134;8.378;2022-10-18T02:42:38;2.50;;;2.27;;
49235;SDS011;35067;48.134;8.378;2022-10-18T02:44:47;2.77;;;2.37;;
49235;SDS011;35067;48.134;8.378;2022-10-18T02:46:47;3.07;;;2.03;;
49235;SDS011;35067;48.134;8.378;2022-10-18T02:48:48;4.33;;;2.40;;
49235;SDS011;35067;48.134;8.378;2022-10-18T02:50:49;3.50;;;2.17;;
49235;SDS011;35067;48.134;8.378;2022-10-18T02:52:49;5.87;;;2.33;;
49235;SDS011;35067;48.134;8.378;2022-10-18T02:54:50;3.63;;;2.67;;
49235;SDS011;35067;48.134;8.378;2022-10-18T02:56:50;2.40;;;1.90;;
49235;SDS011;35067;48.134;8.378;2022-10-18T02:58:51;2.60;;;2.17;;
49235;SDS011;35067;48.134;8.378;2022-10-18T03:00:51;5.33;;;2.50;;
49235;SDS011;35067;48.134;8.378;2022-10-18T03:02:52;3.90;;;2.53;;
49235;SDS011;35067;48.134;8.378;2022-10-18T03:04:52;4.10;;;2.33;;
49235;SDS011;35067;48.134;8.378;2022-10-18T03:06:53;2.90;;;2.10;;
49235;SDS011;35067;48.134;8.378;2022-10-18T03:08:53;5.93;;;2.80;;
49235;SDS011;35067;48.134;8.378;2022-10-18T03:10:54;3.20;;;2.37;;
49235;SDS011;35067;48.134;8.378;2022-10-18T03:12:55;4.00;;;2.27;;
49235;SDS011;35067;48.134;8.378;2022-10-18T03:14:55;4.13;;;2.20;;
49235;SDS011;35067;48.134;8.378;2022-10-18T03:16:56;5.17;;;2.60;;
49235;SDS011;35067;48.134;8.378;2022-10-18T03:18:56;3.37;;;2.40;;
49235;SDS011;35067;48.134;8.378;2022-10-18T03:20:57;5.10;;;2.17;;
49235;SDS011;35067;48.134;8.378;2022-10-18T03:22:57;5.47;;;2.33;;
49235;SDS011;35067;48.134;8.378;2022-10-18T03:24:58;4.93;;;2.40;;
49235;SDS011;35067;48.134;8.378;2022-10-18T03:26:58;4.23;;;2.30;;
49235;SDS011;35067;48.134;8.378;2022-10-18T03:28:59;6.40;;;2.30;;
49235;SDS011;35067;48.134;8.378;2022-10-18T03:31:00;5.07;;;2.50;;
49235;SDS011;35067;48.134;8.378;2022-10-18T03:33:01;3.77;;;2.70;;
49235;SDS011;35067;48.134;8.378;2022-10-18T03:35:02;5.27;;;2.60;;
49235;SDS011;35067;48.134;8.378;2022-10-18T03:37:04;4.10;;;2.50;;
49235;SDS011;35067;48.134;8.378;2022-10-18T03:39:04;3.27;;;2.60;;
49235;SDS011;35067;48.134;8.378;2022-10-18T03:41:05;4.73;;;2.53;;
49235;SDS011;35067;48.134;8.378;2022-10-18T03:43:05;2.67;;;2.47;;
49235;SDS011;35067;48.134;8.378;2022-10-18T03:45:06;6.43;;;2.70;;
49235;SDS011;35067;48.134;8.378;2022-10-18T03:47:07;3.97;;;2.80;;
49235;SDS011;35067;48.134;8.378;2022-10-18T03:49:08;3.17;;;2.57;;
49235;SDS011;35067;48.134;8.378;2022-10-18T03:51:08;4.30;;;3.20;;
49235;SDS011;35067;48.134;8.378;2022-10-18T03:53:09;11.50;;;6.17;;
49235;SDS011;35067;48.134;8.378;2022-10-18T03:55:10;11.80;;;5.63;;
49235;SDS011;35067;48.134;8.378;2022-10-18T03:57:10;6.63;;;4.33;;
49235;SDS011;35067;48.134;8.378;2022-10-18T03:59:11;6.60;;;3.90;;
49235;SDS011;35067;48.134;8.378;2022-10-18T04:01:11;6.57;;;3.37;;
49235;SDS011;35067;48.134;8.378;2022-10-18T04:03:12;4.53;;;3.43;;
49235;SDS011;35067;48.134;8.378;2022-10-18T04:05:12;6.77;;;3.73;;
49235;SDS011;35067;48.134;8.378;2022-10-18T04:07:13;6.37;;;3.70;;
49235;SDS011;35067;48.134;8.378;2022-10-18T04:09:14;5.87;;;3.63;;
49235;SDS011;35067;48.134;8.378;2022-10-18T04:11:14;6.33;;;3.47;;
49235;SDS011;35067;48.134;8.378;2022-10-18T04:13:15;8.20;;;3.60;;
49235;SDS011;35067;48.134;8.378;2022-10-18T04:15:15;5.60;;;3.27;;
49235;SDS011;35067;48.134;8.378;2022-10-18T04:17:16;4.83;;;3.43;;
49235;SDS011;35067;48.134;8.378;2022-10-18T04:19:16;4.53;;;3.27;;
49235;SDS011;35067;48.134;8.378;2022-10-18T04:21:17;6.13;;;5.20;;
49235;SDS011;35067;48.134;8.378;2022-10-18T04:23:18;9.30;;;4.07;;
49235;SDS011;35067;48.134;8.378;2022-10-18T04:25:18;7.90;;;4.70;;
49235;SDS011;35067;48.134;8.378;2022-10-18T04:27:19;8.50;;;4.73;;
49235;SDS011;35067;48.134;8.378;2022-10-18T04:29:20;7.47;;;3.60;;
49235;SDS011;35067;48.134;8.378;2022-10-18T04:31:20;7.40;;;3.97;;
49235;SDS011;35067;48.134;8.378;2022-10-18T04:33:21;7.33;;;3.73;;
49235;SDS011;35067;48.134;8.378;2022-10-18T04:35:22;5.63;;;4.00;;
49235;SDS011;35067;48.134;8.378;2022-10-18T04:37:24;4.67;;;3.83;;
49235;SDS011;35067;48.134;8.378;2022-10-18T04:39:25;4.97;;;3.33;;
49235;SDS011;35067;48.134;8.378;2022-10-18T04:41:25;6.27;;;3.33;;
49235;SDS011;35067;48.134;8.378;2022-10-18T04:43:26;10.37;;;5.10;;
49235;SDS011;35067;48.134;8.378;2022-10-18T04:45:27;8.47;;;5.40;;
49235;SDS011;35067;48.134;8.378;2022-10-18T04:47:27;8.93;;;5.00;;
49235;SDS011;35067;48.134;8.378;2022-10-18T04:49:28;11.13;;;5.30;;
49235;SDS011;35067;48.134;8.378;2022-10-18T04:51:28;13.27;;;6.17;;
49235;SDS011;35067;48.134;8.378;2022-10-18T04:53:29;9.33;;;5.43;;
49235;SDS011;35067;48.134;8.378;2022-10-18T04:55:30;9.30;;;5.10;;
49235;SDS011;35067;48.134;8.378;2022-10-18T04:57:30;10.17;;;5.30;;
49235;SDS011;35067;48.134;8.378;2022-10-18T04:59:31;9.30;;;5.60;;
49235;SDS011;35067;48.134;8.378;2022-10-18T05:01:31;11.93;;;5.63;;
49235;SDS011;35067;48.134;8.378;2022-10-18T05:03:32;10.13;;;5.37;;
49235;SDS011;35067;48.134;8.378;2022-10-18T05:05:33;6.90;;;5.00;;
49235;SDS011;35067;48.134;8.378;2022-10-18T05:07:34;11.83;;;5.40;;
49235;SDS011;35067;48.134;8.378;2022-10-18T05:09:34;6.60;;;4.33;;
49235;SDS011;35067;48.134;8.378;2022-10-18T05:11:35;11.67;;;6.33;;
49235;SDS011;35067;48.134;8.378;2022-10-18T05:13:35;8.63;;;5.10;;
49235;SDS011;35067;48.134;8.378;2022-10-18T05:15:37;12.10;;;5.40;;
49235;SDS011;35067;48.134;8.378;2022-10-18T05:17:37;7.17;;;5.27;;
49235;SDS011;35067;48.134;8.378;2022-10-18T05:19:38;7.13;;;4.87;;
49235;SDS011;35067;48.134;8.378;2022-10-18T05:21:39;9.80;;;6.00;;
49235;SDS011;35067;48.134;8.378;2022-10-18T05:23:39;8.67;;;4.50;;
49235;SDS011;35067;48.134;8.378;2022-10-18T05:25:42;11.40;;;5.30;;
49235;SDS011;35067;48.134;8.378;2022-10-18T05:27:43;8.17;;;4.70;;
49235;SDS011;35067;48.134;8.378;2022-10-18T05:29:44;12.80;;;5.53;;
49235;SDS011;35067;48.134;8.378;2022-10-18T05:31:45;7.10;;;4.27;;
49235;SDS011;35067;48.134;8.378;2022-10-18T05:33:46;6.97;;;3.90;;
49235;SDS011;35067;48.134;8.378;2022-10-18T05:35:47;9.03;;;4.70;;
49235;SDS011;35067;48.134;8.378;2022-10-18T05:37:47;14.67;;;5.67;;
49235;SDS011;35067;48.134;8.378;2022-10-18T05:39:48;7.87;;;4.03;;
49235;SDS011;35067;48.134;8.378;2022-10-18T05:41:48;7.63;;;3.50;;
49235;SDS011;35067;48.134;8.378;2022-10-18T05:43:49;5.87;;;3.50;;
49235;SDS011;35067;48.134;8.378;2022-10-18T05:45:50;11.10;;;4.50;;
49235;SDS011;35067;48.134;8.378;2022-10-18T05:47:50;7.17;;;4.00;;
49235;SDS011;35067;48.134;8.378;2022-10-18T05:49:51;7.33;;;4.27;;
49235;SDS011;35067;48.134;8.378;2022-10-18T05:51:51;9.33;;;3.77;;
49235;SDS011;35067;48.134;8.378;2022-10-18T05:53:52;5.77;;;3.90;;
49235;SDS011;35067;48.134;8.378;2022-10-18T05:55:53;5.50;;;3.90;;
49235;SDS011;35067;48.134;8.378;2022-10-18T05:57:54;6.77;;;3.83;;
49235;SDS011;35067;48.134;8.378;2022-10-18T05:59:54;5.67;;;3.90;;
49235;SDS011;35067;48.134;8.378;2022-10-18T06:01:55;5.33;;;3.27;;
49235;SDS011;35067;48.134;8.378;2022-10-18T06:03:55;5.60;;;3.23;;
49235;SDS011;35067;48.134;8.378;2022-10-18T06:08:00;4.47;;;2.90;;
49235;SDS011;35067;48.134;8.378;2022-10-18T06:10:01;4.87;;;2.97;;
49235;SDS011;35067;48.134;8.378;2022-10-18T06:12:02;4.33;;;3.10;;
49235;SDS011;35067;48.134;8.378;2022-10-18T06:14:03;5.03;;;3.03;;
49235;SDS011;35067;48.134;8.378;2022-10-18T06:16:04;5.37;;;2.87;;
49235;SDS011;35067;48.134;8.378;2022-10-18T06:18:05;7.10;;;3.23;;
49235;SDS011;35067;48.134;8.378;2022-10-18T06:20:06;5.47;;;3.10;;
49235;SDS011;35067;48.134;8.378;2022-10-18T06:22:07;4.87;;;2.90;;
49235;SDS011;35067;48.134;8.378;2022-10-18T06:24:08;4.83;;;2.80;;
49235;SDS011;35067;48.134;8.378;2022-10-18T06:26:09;4.97;;;3.03;;
49235;SDS011;35067;48.134;8.378;2022-10-18T06:28:10;5.57;;;2.80;;
49235;SDS011;35067;48.134;8.378;2022-10-18T06:30:11;5.47;;;2.47;;
49235;SDS011;35067;48.134;8.378;2022-10-18T06:32:12;5.33;;;2.50;;
49235;SDS011;35067;48.134;8.378;2022-10-18T06:34:13;8.93;;;3.83;;
49235;SDS011;35067;48.134;8.378;2022-10-18T06:36:18;4.47;;;2.93;;
49235;SDS011;35067;48.134;8.378;2022-10-18T06:38:21;8.87;;;2.70;;
49235;SDS011;35067;48.134;8.378;2022-10-18T06:40:22;6.87;;;2.67;;
49235;SDS011;35067;48.134;8.378;2022-10-18T06:42:22;3.73;;;2.40;;
49235;SDS011;35067;48.134;8.378;2022-10-18T06:44:23;6.90;;;2.70;;
49235;SDS011;35067;48.134;8.378;2022-10-18T06:46:24;3.97;;;2.40;;
49235;SDS011;35067;48.134;8.378;2022-10-18T06:48:25;5.40;;;2.70;;
49235;SDS011;35067;48.134;8.378;2022-10-18T06:50:25;9.60;;;3.20;;
49235;SDS011;35067;48.134;8.378;2022-10-18T06:52:26;4.97;;;2.77;;
49235;SDS011;35067;48.134;8.378;2022-10-18T06:54:27;4.50;;;2.93;;
49235;SDS011;35067;48.134;8.378;2022-10-18T06:56:27;4.27;;;2.70;;
49235;SDS011;35067;48.134;8.378;2022-10-18T06:58:29;4.53;;;2.63;;
49235;SDS011;35067;48.134;8.378;2022-10-18T07:00:29;3.30;;;2.40;;
49235;SDS011;35067;48.134;8.378;2022-10-18T07:02:30;5.87;;;3.73;;
49235;SDS011;35067;48.134;8.378;2022-10-18T07:04:31;3.60;;;2.67;;
49235;SDS011;35067;48.134;8.378;2022-10-18T07:06:31;5.07;;;2.60;;
49235;SDS011;35067;48.134;8.378;2022-10-18T07:08:32;5.07;;;2.60;;
49235;SDS011;35067;48.134;8.378;2022-10-18T07:10:33;6.53;;;2.37;;
49235;SDS011;35067;48.134;8.378;2022-10-18T07:12:34;2.57;;;2.07;;
49235;SDS011;35067;48.134;8.378;2022-10-18T07:14:35;2.50;;;2.17;;
49235;SDS011;35067;48.134;8.378;2022-10-18T07:16:35;4.20;;;2.00;;
49235;SDS011;35067;48.134;8.378;2022-10-18T07:18:37;3.43;;;2.30;;
49235;SDS011;35067;48.134;8.378;2022-10-18T07:20:41;3.40;;;2.50;;
49235;SDS011;35067;48.134;8.378;2022-10-18T07:22:41;4.67;;;2.20;;
49235;SDS011;35067;48.134;8.378;2022-10-18T07:24:42;5.73;;;2.63;;
49235;SDS011;35067;48.134;8.378;2022-10-18T07:26:43;4.60;;;2.70;;
49235;SDS011;35067;48.134;8.378;2022-10-18T07:28:44;4.10;;;2.23;;
49235;SDS011;35067;48.134;8.378;2022-10-18T07:30:53;4.07;;;2.20;;
49235;SDS011;35067;48.134;8.378;2022-10-18T07:32:54;4.43;;;2.17;;
49235;SDS011;35067;48.134;8.378;2022-10-18T07:34:54;8.53;;;2.67;;
49235;SDS011;35067;48.134;8.378;2022-10-18T07:36:55;3.00;;;2.47;;
49235;SDS011;35067;48.134;8.378;2022-10-18T07:38:56;6.17;;;2.50;;
49235;SDS011;35067;48.134;8.378;2022-10-18T07:40:57;3.63;;;2.20;;
49235;SDS011;35067;48.134;8.378;2022-10-18T07:42:59;6.43;;;2.40;;
49235;SDS011;35067;48.134;8.378;2022-10-18T07:44:59;8.23;;;2.53;;
49235;SDS011;35067;48.134;8.378;2022-10-18T07:47:00;4.70;;;2.70;;
49235;SDS011;35067;48.134;8.378;2022-10-18T07:49:01;5.23;;;2.20;;
49235;SDS011;35067;48.134;8.378;2022-10-18T07:51:02;3.07;;;2.03;;
49235;SDS011;35067;48.134;8.378;2022-10-18T07:53:04;4.57;;;2.40;;
49235;SDS011;35067;48.134;8.378;2022-10-18T07:55:05;5.10;;;2.40;;
49235;SDS011;35067;48.134;8.378;2022-10-18T07:57:06;3.80;;;2.07;;
49235;SDS011;35067;48.134;8.378;2022-10-18T07:59:07;3.57;;;2.40;;
49235;SDS011;35067;48.134;8.378;2022-10-18T08:01:09;5.07;;;2.47;;
49235;SDS011;35067;48.134;8.378;2022-10-18T08:03:10;7.37;;;2.60;;
49235;SDS011;35067;48.134;8.378;2022-10-18T08:05:10;3.90;;;3.10;;
49235;SDS011;35067;48.134;8.378;2022-10-18T08:07:11;5.43;;;2.90;;
49235;SDS011;35067;48.134;8.378;2022-10-18T08:09:12;4.03;;;2.33;;
49235;SDS011;35067;48.134;8.378;2022-10-18T08:11:14;5.37;;;4.13;;
49235;SDS011;35067;48.134;8.378;2022-10-18T08:13:23;3.53;;;2.50;;
49235;SDS011;35067;48.134;8.378;2022-10-18T08:15:24;6.53;;;2.63;;
49235;SDS011;35067;48.134;8.378;2022-10-18T08:17:25;6.47;;;2.80;;
49235;SDS011;35067;48.134;8.378;2022-10-18T08:19:25;3.80;;;2.80;;
49235;SDS011;35067;48.134;8.378;2022-10-18T08:21:26;5.20;;;2.10;;
49235;SDS011;35067;48.134;8.378;2022-10-18T08:23:27;7.23;;;3.20;;
49235;SDS011;35067;48.134;8.378;2022-10-18T08:25:27;4.77;;;2.53;;
49235;SDS011;35067;48.134;8.378;2022-10-18T08:27:28;4.80;;;2.30;;
49235;SDS011;35067;48.134;8.378;2022-10-18T08:29:29;5.40;;;2.40;;
49235;SDS011;35067;48.134;8.378;2022-10-18T08:31:30;5.53;;;2.33;;
49235;SDS011;35067;48.134;8.378;2022-10-18T08:33:31;3.57;;;2.50;;
49235;SDS011;35067;48.134;8.378;2022-10-18T08:35:33;6.20;;;2.40;;
49235;SDS011;35067;48.134;8.378;2022-10-18T08:37:34;2.77;;;2.13;;
49235;SDS011;35067;48.134;8.378;2022-10-18T08:39:35;4.40;;;2.30;;
49235;SDS011;35067;48.134;8.378;2022-10-18T08:43:37;5.97;;;2.47;;
49235;SDS011;35067;48.134;8.378;2022-10-18T08:45:45;4.33;;;2.10;;
49235;SDS011;35067;48.134;8.378;2022-10-18T08:47:46;4.73;;;2.43;;
49235;SDS011;35067;48.134;8.378;2022-10-18T08:49:52;5.73;;;2.23;;
49235;SDS011;35067;48.134;8.378;2022-10-18T08:52:10;7.63;;;3.20;;
49235;SDS011;35067;48.134;8.378;2022-10-18T08:54:42;4.37;;;3.33;;
49235;SDS011;35067;48.134;8.378;2022-10-18T08:56:57;4.27;;;3.00;;
49235;SDS011;35067;48.134;8.378;2022-10-18T08:59:01;5.07;;;3.97;;
49235;SDS011;35067;48.134;8.378;2022-10-18T09:06:12;5.40;;;3.30;;
49235;SDS011;35067;48.134;8.378;2022-10-18T09:08:35;7.10;;;3.13;;
49235;SDS011;35067;48.134;8.378;2022-10-18T09:13:39;10.00;;;3.00;;
49235;SDS011;35067;48.134;8.378;2022-10-18T09:16:06;6.33;;;3.47;;
49235;SDS011;35067;48.134;8.378;2022-10-18T09:20:50;3.83;;;3.40;;
49235;SDS011;35067;48.134;8.378;2022-10-18T09:25:16;8.67;;;3.80;;
49235;SDS011;35067;48.134;8.378;2022-10-18T09:27:21;6.00;;;3.80;;
49235;SDS011;35067;48.134;8.378;2022-10-18T09:29:43;8.63;;;3.93;;
49235;SDS011;35067;48.134;8.378;2022-10-18T09:32:15;7.43;;;3.27;;
49235;SDS011;35067;48.134;8.378;2022-10-18T09:36:40;9.47;;;3.57;;
49235;SDS011;35067;48.134;8.378;2022-10-18T09:38:43;12.63;;;4.10;;
49235;SDS011;35067;48.134;8.378;2022-10-18T09:41:34;10.13;;;4.00;;
49235;SDS011;35067;48.134;8.378;2022-10-18T09:43:24;7.03;;;3.50;;
49235;SDS011;35067;48.134;8.378;2022-10-18T09:45:43;5.90;;;3.73;;
49235;SDS011;35067;48.134;8.378;2022-10-18T09:47:49;5.23;;;3.63;;
49235;SDS011;35067;48.134;8.378;2022-10-18T09:52:43;4.63;;;2.47;;
49235;SDS011;35067;48.134;8.378;2022-10-18T09:54:58;4.77;;;2.63;;
49235;SDS011;35067;48.134;8.378;2022-10-18T09:57:17;6.33;;;2.93;;
49235;SDS011;35067;48.134;8.378;2022-10-18T09:59:29;3.37;;;2.53;;
49235;SDS011;35067;48.134;8.378;2022-10-18T10:01:41;4.63;;;2.97;;
49235;SDS011;35067;48.134;8.378;2022-10-18T10:03:42;5.13;;;2.43;;
49235;SDS011;35067;48.134;8.378;2022-10-18T10:05:43;5.97;;;2.47;;
49235;SDS011;35067;48.134;8.378;2022-10-18T10:07:45;5.17;;;3.70;;
49235;SDS011;35067;48.134;8.378;2022-10-18T10:09:57;7.60;;;3.43;;
49235;SDS011;35067;48.134;8.378;2022-10-18T10:12:35;4.97;;;2.80;;
49235;SDS011;35067;48.134;8.378;2022-10-18T10:14:43;6.67;;;2.60;;
49235;SDS011;35067;48.134;8.378;2022-10-18T10:16:48;2.67;;;2.30;;
49235;SDS011;35067;48.134;8.378;2022-10-18T10:18:55;6.97;;;2.67;;
49235;SDS011;35067;48.134;8.378;2022-10-18T10:20:59;6.70;;;3.37;;
49235;SDS011;35067;48.134;8.378;2022-10-18T10:25:30;6.10;;;2.73;;
49235;SDS011;35067;48.134;8.378;2022-10-18T10:27:43;6.00;;;2.87;;
49235;SDS011;35067;48.134;8.378;2022-10-18T10:32:02;5.97;;;3.10;;
49235;SDS011;35067;48.134;8.378;2022-10-18T10:34:04;3.93;;;2.93;;
49235;SDS011;35067;48.134;8.378;2022-10-18T10:36:19;4.23;;;3.10;;
49235;SDS011;35067;48.134;8.378;2022-10-18T10:38:21;5.77;;;2.80;;
49235;SDS011;35067;48.134;8.378;2022-10-18T10:40:27;6.43;;;2.40;;
49235;SDS011;35067;48.134;8.378;2022-10-18T10:42:52;5.67;;;2.30;;
49235;SDS011;35067;48.134;8.378;2022-10-18T10:44:56;5.83;;;2.23;;
49235;SDS011;35067;48.134;8.378;2022-10-18T10:46:57;3.73;;;2.27;;
49235;SDS011;35067;48.134;8.378;2022-10-18T10:48:58;5.03;;;2.23;;
49235;SDS011;35067;48.134;8.378;2022-10-18T10:51:09;3.43;;;2.60;;
49235;SDS011;35067;48.134;8.378;2022-10-18T10:53:25;8.33;;;2.33;;
49235;SDS011;35067;48.134;8.378;2022-10-18T10:55:32;5.63;;;2.17;;
49235;SDS011;35067;48.134;8.378;2022-10-18T10:57:34;6.63;;;2.83;;
49235;SDS011;35067;48.134;8.378;2022-10-18T10:59:48;8.90;;;2.87;;
49235;SDS011;35067;48.134;8.378;2022-10-18T11:02:35;3.57;;;2.50;;
49235;SDS011;35067;48.134;8.378;2022-10-18T11:04:42;6.00;;;2.77;;
49235;SDS011;35067;48.134;8.378;2022-10-18T11:06:52;6.07;;;2.90;;
49235;SDS011;35067;48.134;8.378;2022-10-18T11:09:30;5.63;;;2.73;;
49235;SDS011;35067;48.134;8.378;2022-10-18T11:11:52;4.03;;;2.50;;
49235;SDS011;35067;48.134;8.378;2022-10-18T11:14:15;2.73;;;2.20;;
49235;SDS011;35067;48.134;8.378;2022-10-18T11:16:28;5.37;;;2.43;;
49235;SDS011;35067;48.134;8.378;2022-10-18T11:18:35;4.87;;;2.63;;
49235;SDS011;35067;48.134;8.378;2022-10-18T11:20:37;5.63;;;2.33;;
49235;SDS011;35067;48.134;8.378;2022-10-18T11:24:55;5.40;;;2.20;;
49235;SDS011;35067;48.134;8.378;2022-10-18T11:27:08;3.40;;;2.17;;
49235;SDS011;35067;48.134;8.378;2022-10-18T11:31:34;3.27;;;1.90;;
49235;SDS011;35067;48.134;8.378;2022-10-18T11:36:35;3.67;;;2.10;;
49235;SDS011;35067;48.134;8.378;2022-10-18T11:47:54;2.90;;;2.10;;
49235;SDS011;35067;48.134;8.378;2022-10-18T11:50:12;6.70;;;2.47;;
49235;SDS011;35067;48.134;8.378;2022-10-18T11:57:49;3.33;;;1.90;;
49235;SDS011;35067;48.134;8.378;2022-10-18T12:01:02;5.20;;;2.20;;
49235;SDS011;35067;48.134;8.378;2022-10-18T12:05:25;5.13;;;2.00;;
49235;SDS011;35067;48.134;8.378;2022-10-18T12:07:32;3.57;;;2.10;;
49235;SDS011;35067;48.134;8.378;2022-10-18T12:09:43;4.30;;;2.10;;
49235;SDS011;35067;48.134;8.378;2022-10-18T12:11:48;5.28;;;2.70;;
49235;SDS011;35067;48.134;8.378;2022-10-18T12:14:01;5.30;;;2.42;;
49235;SDS011;35067;48.134;8.378;2022-10-18T12:16:07;4.68;;;2.10;;
49235;SDS011;35067;48.134;8.378;2022-10-18T12:18:12;3.03;;;2.47;;
49235;SDS011;35067;48.134;8.378;2022-10-18T12:20:29;5.78;;;2.33;;
49235;SDS011;35067;48.134;8.378;2022-10-18T12:22:35;3.92;;;2.40;;
49235;SDS011;35067;48.134;8.378;2022-10-18T12:24:40;4.18;;;2.08;;
49235;SDS011;35067;48.134;8.378;2022-10-18T12:26:41;4.85;;;2.40;;
49235;SDS011;35067;48.134;8.378;2022-10-18T12:33:22;5.28;;;2.15;;
49235;SDS011;35067;48.134;8.378;2022-10-18T12:35:30;3.38;;;2.13;;
49235;SDS011;35067;48.134;8.378;2022-10-18T12:37:49;3.35;;;2.58;;
49235;SDS011;35067;48.134;8.378;2022-10-18T12:40:24;3.53;;;2.55;;
49235;SDS011;35067;48.134;8.378;2022-10-18T12:42:33;4.93;;;2.20;;
49235;SDS011;35067;48.134;8.378;2022-10-18T12:44:42;3.92;;;2.33;;
49235;SDS011;35067;48.134;8.378;2022-10-18T12:46:51;6.15;;;2.33;;
49235;SDS011;35067;48.134;8.378;2022-10-18T12:49:02;2.70;;;2.08;;
49235;SDS011;35067;48.134;8.378;2022-10-18T12:51:17;4.95;;;2.17;;
49235;SDS011;35067;48.134;8.378;2022-10-18T12:53:24;3.97;;;2.20;;
49235;SDS011;35067;48.134;8.378;2022-10-18T12:55:28;4.35;;;2.33;;
49235;SDS011;35067;48.134;8.378;2022-10-18T12:59:51;6.75;;;2.35;;
49235;SDS011;35067;48.134;8.378;2022-10-18T13:03:54;3.40;;;2.28;;
49235;SDS011;35067;48.134;8.378;2022-10-18T13:05:57;3.40;;;1.80;;
49235;SDS011;35067;48.134;8.378;2022-10-18T13:10:32;2.20;;;1.60;;
49235;SDS011;35067;48.134;8.378;2022-10-18T13:12:47;4.53;;;1.90;;
49235;SDS011;35067;48.134;8.378;2022-10-18T13:15:20;4.38;;;1.90;;
49235;SDS011;35067;48.134;8.378;2022-10-18T13:17:38;5.43;;;2.00;;
49235;SDS011;35067;48.134;8.378;2022-10-18T13:19:57;4.63;;;2.08;;
49235;SDS011;35067;48.134;8.378;2022-10-18T13:22:49;3.92;;;2.00;;
49235;SDS011;35067;48.134;8.378;2022-10-18T13:37:59;6.57;;;5.65;;
49235;SDS011;35067;48.134;8.378;2022-10-18T13:42:36;3.42;;;1.77;;
49235;SDS011;35067;48.134;8.378;2022-10-18T13:44:36;4.78;;;2.30;;
49235;SDS011;35067;48.134;8.378;2022-10-18T13:50:47;2.05;;;1.50;;
49235;SDS011;35067;48.134;8.378;2022-10-18T13:54:58;6.00;;;4.97;;
49235;SDS011;35067;48.134;8.378;2022-10-18T13:59:53;3.17;;;2.05;;
49235;SDS011;35067;48.134;8.378;2022-10-18T14:05:01;3.22;;;1.88;;
49235;SDS011;35067;48.134;8.378;2022-10-18T14:07:14;2.60;;;2.10;;
49235;SDS011;35067;48.134;8.378;2022-10-18T14:09:19;2.38;;;1.70;;
49235;SDS011;35067;48.134;8.378;2022-10-18T14:16:36;5.38;;;2.00;;
49235;SDS011;35067;48.134;8.378;2022-10-18T14:19:03;4.68;;;2.20;;
49235;SDS011;35067;48.134;8.378;2022-10-18T14:21:26;3.20;;;2.05;;
49235;SDS011;35067;48.134;8.378;2022-10-18T14:23:34;5.43;;;4.28;;